createdAt,value
2022-10-01T00:02:12.307Z,3.40
2022-10-01T00:04:40.760Z,4.30
2022-10-01T00:07:14.999Z,3.30
2022-10-01T00:09:43.268Z,3.60
2022-10-01T00:12:11.620Z,3.77
2022-10-01T00:14:39.954Z,3.80
2022-10-01T00:17:09.953Z,3.20
2022-10-01T00:19:38.189Z,3.27
2022-10-01T00:22:06.437Z,3.57
2022-10-01T00:24:36.632Z,3.60
2022-10-01T00:27:04.943Z,3.93
2022-10-01T00:29:33.278Z,3.60
2022-10-01T00:32:02.079Z,3.20
2022-10-01T00:34:31.982Z,4.20
2022-10-01T00:37:00.425Z,3.20
2022-10-01T00:39:28.646Z,4.07
2022-10-01T00:41:56.941Z,3.87
2022-10-01T00:44:33.466Z,4.33
2022-10-01T00:47:04.618Z,5.93
2022-10-01T00:49:35.536Z,4.30
2022-10-01T00:52:04.903Z,7.80
2022-10-01T00:54:36.341Z,3.93
2022-10-01T00:57:06.661Z,4.13
2022-10-01T00:59:35.461Z,4.70
2022-10-01T01:02:03.816Z,6.37
2022-10-01T01:04:32.249Z,4.60
2022-10-01T01:07:03.579Z,3.67
2022-10-01T01:09:32.959Z,4.70
2022-10-01T01:12:06.508Z,4.97
2022-10-01T01:14:38.530Z,4.30
2022-10-01T01:17:08.663Z,5.07
2022-10-01T01:19:43.780Z,5.00
2022-10-01T01:22:13.883Z,7.03
2022-10-01T01:24:51.757Z,5.77
2022-10-01T01:27:26.254Z,4.93
2022-10-01T01:30:00.330Z,6.47
2022-10-01T01:32:30.541Z,4.80
2022-10-01T01:35:02.707Z,4.50
2022-10-01T01:37:34.779Z,4.97
2022-10-01T01:40:04.324Z,5.63
2022-10-01T01:42:37.224Z,5.80
2022-10-01T01:45:09.869Z,6.40
2022-10-01T01:47:39.897Z,6.60
2022-10-01T01:50:08.775Z,4.97
2022-10-01T01:52:38.239Z,5.43
2022-10-01T01:55:08.406Z,6.23
2022-10-01T01:57:38.493Z,7.50
2022-10-01T02:00:09.225Z,5.60
2022-10-01T02:02:39.347Z,6.63
2022-10-01T02:05:09.831Z,5.57
2022-10-01T02:07:48.358Z,5.50
2022-10-01T02:10:20.716Z,6.93
2022-10-01T02:13:00.671Z,6.03
2022-10-01T02:15:37.405Z,7.13
2022-10-01T02:18:10.518Z,6.17
2022-10-01T02:20:40.480Z,6.57
2022-10-01T02:23:10.901Z,6.50
2022-10-01T02:25:41.664Z,6.67
2022-10-01T02:28:11.444Z,7.53
2022-10-01T02:30:41.825Z,7.00
2022-10-01T02:33:12.100Z,7.37
2022-10-01T02:35:40.651Z,8.10
2022-10-01T02:38:09.680Z,7.67
2022-10-01T02:40:40.721Z,6.87
2022-10-01T02:43:10.781Z,7.47
2022-10-01T02:45:40.271Z,7.47
2022-10-01T02:48:12.092Z,7.67
2022-10-01T02:50:43.830Z,7.53
2022-10-01T02:53:14.589Z,7.40
2022-10-01T02:55:43.599Z,7.40
2022-10-01T02:58:10.795Z,11.63
2022-10-01T03:00:38.992Z,7.73
2022-10-01T03:03:07.221Z,7.37
2022-10-01T03:05:36.736Z,8.57
2022-10-01T03:08:04.947Z,7.70
2022-10-01T03:10:33.593Z,8.03
2022-10-01T03:13:02.002Z,7.37
2022-10-01T03:15:30.584Z,8.20
2022-10-01T03:17:59.414Z,8.07
2022-10-01T03:20:27.605Z,7.77
2022-10-01T03:22:57.109Z,8.17
2022-10-01T03:25:25.459Z,9.00
2022-10-01T03:27:53.699Z,7.43
2022-10-01T03:30:22.175Z,7.93
2022-10-01T03:32:50.331Z,7.77
2022-10-01T03:35:18.636Z,7.30
2022-10-01T03:37:47.617Z,7.07
2022-10-01T03:40:17.276Z,6.80
2022-10-01T03:42:45.428Z,6.93
2022-10-01T03:45:13.892Z,7.83
2022-10-01T03:47:42.084Z,6.83
2022-10-01T03:50:10.756Z,5.63
2022-10-01T03:52:38.891Z,6.57
2022-10-01T03:55:07.520Z,5.77
2022-10-01T03:57:37.079Z,5.50
2022-10-01T04:00:05.939Z,5.83
2022-10-01T04:02:34.246Z,6.03
2022-10-01T04:05:02.639Z,6.53
2022-10-01T04:07:30.812Z,5.67
2022-10-01T04:09:58.986Z,5.43
2022-10-01T04:12:27.145Z,5.40
2022-10-01T04:14:56.664Z,5.50
2022-10-01T04:17:24.835Z,6.30
2022-10-01T04:19:53.017Z,5.07
2022-10-01T04:22:21.213Z,5.10
2022-10-01T04:24:49.379Z,5.47
2022-10-01T04:27:17.544Z,5.00
2022-10-01T04:29:45.724Z,5.30
2022-10-01T04:32:16.111Z,4.73
2022-10-01T04:34:53.344Z,4.73
2022-10-01T04:37:24.746Z,4.87
2022-10-01T04:39:52.936Z,3.97
2022-10-01T04:42:21.167Z,4.30
2022-10-01T04:44:49.526Z,5.93
2022-10-01T04:47:19.070Z,3.73
2022-10-01T04:49:47.235Z,3.80
2022-10-01T04:52:15.446Z,4.27
2022-10-01T04:54:43.943Z,3.50
2022-10-01T04:57:12.235Z,4.30
2022-10-01T04:59:40.404Z,4.13
2022-10-01T05:02:08.840Z,3.67
2022-10-01T05:04:38.411Z,3.30
2022-10-01T05:07:06.711Z,4.00
2022-10-01T05:09:35.096Z,3.60
2022-10-01T05:12:03.612Z,3.47
2022-10-01T05:14:31.773Z,3.67
2022-10-01T05:16:59.926Z,3.53
2022-10-01T05:19:29.228Z,3.20
2022-10-01T05:21:58.803Z,3.47
2022-10-01T05:24:27.185Z,4.17
2022-10-01T05:26:55.359Z,3.23
2022-10-01T05:29:23.572Z,3.60
2022-10-01T05:31:51.937Z,3.00
2022-10-01T05:34:20.158Z,3.00
2022-10-01T05:36:48.409Z,3.00
2022-10-01T05:39:17.962Z,3.20
2022-10-01T05:41:46.115Z,2.73
2022-10-01T05:44:14.271Z,3.10
2022-10-01T05:46:43.600Z,2.80
2022-10-01T05:49:11.781Z,3.00
2022-10-01T05:51:39.956Z,3.43
2022-10-01T05:54:08.288Z,3.47
2022-10-01T05:56:37.938Z,3.30
2022-10-01T05:59:06.939Z,4.33
2022-10-01T06:01:35.249Z,3.80
2022-10-01T06:04:03.754Z,3.53
2022-10-01T06:06:31.995Z,3.50
2022-10-01T06:09:01.044Z,3.13
2022-10-01T06:11:29.230Z,3.40
2022-10-01T06:13:58.944Z,3.30
2022-10-01T06:16:27.282Z,3.80
2022-10-01T06:18:57.565Z,3.97
2022-10-01T06:21:26.111Z,4.50
2022-10-01T06:23:54.556Z,3.70
2022-10-01T06:26:22.921Z,5.03
2022-10-01T06:28:51.368Z,4.10
2022-10-01T06:31:22.157Z,4.30
2022-10-01T06:33:50.436Z,4.10
2022-10-01T06:36:18.616Z,4.10
2022-10-01T06:38:49.400Z,4.27
2022-10-01T06:41:18.582Z,5.73
2022-10-01T06:43:46.771Z,4.60
2022-10-01T06:46:15.004Z,4.97
2022-10-01T06:48:44.572Z,4.33
2022-10-01T06:51:12.850Z,4.80
2022-10-01T06:53:41.183Z,5.03
2022-10-01T06:56:09.932Z,5.10
2022-10-01T06:58:38.391Z,5.40
2022-10-01T07:01:06.634Z,6.53
2022-10-01T07:03:35.962Z,5.47
2022-10-01T07:06:07.994Z,9.03
2022-10-01T07:08:36.203Z,5.60
2022-10-01T07:11:04.929Z,6.03
2022-10-01T07:13:33.141Z,5.80
2022-10-01T07:16:01.494Z,5.77
2022-10-01T07:18:29.703Z,4.90
2022-10-01T07:20:58.317Z,4.80
2022-10-01T07:23:27.960Z,4.73
2022-10-01T07:25:56.146Z,4.20
2022-10-01T07:28:26.221Z,4.67
2022-10-01T07:30:59.380Z,4.40
2022-10-01T07:33:27.603Z,3.70
2022-10-01T07:35:55.824Z,3.80
2022-10-01T07:38:24.002Z,3.83
2022-10-01T07:40:54.590Z,4.33
2022-10-01T07:43:22.962Z,3.70
2022-10-01T07:45:52.417Z,6.10
2022-10-01T07:48:20.692Z,2.90
2022-10-01T07:50:49.523Z,3.10
2022-10-01T07:53:18.408Z,3.27
2022-10-01T07:55:46.747Z,3.10
2022-10-01T07:58:16.350Z,2.97
2022-10-01T08:00:44.908Z,3.00
2022-10-01T08:03:13.110Z,3.10
2022-10-01T08:05:42.808Z,2.97
2022-10-01T08:08:11.062Z,3.37
2022-10-01T08:10:41.302Z,3.00
2022-10-01T08:13:14.808Z,7.47
2022-10-01T08:15:45.170Z,3.00
2022-10-01T08:18:13.864Z,3.27
2022-10-01T08:20:42.436Z,2.80
2022-10-01T08:23:12.247Z,3.40
2022-10-01T08:25:40.913Z,3.00
2022-10-01T08:28:09.684Z,3.17
2022-10-01T08:30:38.383Z,3.57
2022-10-01T08:33:08.269Z,3.17
2022-10-01T08:35:36.513Z,3.33
2022-10-01T08:38:04.734Z,3.77
2022-10-01T08:40:35.208Z,3.43
2022-10-01T08:43:06.287Z,3.63
2022-10-01T08:45:38.032Z,5.87
2022-10-01T08:48:10.115Z,3.47
2022-10-01T08:50:42.855Z,8.47
2022-10-01T08:53:15.262Z,5.87
2022-10-01T08:55:44.188Z,5.30
2022-10-01T08:58:14.348Z,4.93
2022-10-01T09:00:45.178Z,3.30
2022-10-01T09:03:16.030Z,3.63
2022-10-01T09:05:51.254Z,4.07
2022-10-01T09:08:24.510Z,4.00
2022-10-01T09:10:55.325Z,3.57
2022-10-01T09:13:31.286Z,4.83
2022-10-01T09:16:03.818Z,4.33
2022-10-01T09:18:44.237Z,2.80
2022-10-01T09:21:17.262Z,5.57
2022-10-01T09:23:51.023Z,3.13
2022-10-01T09:26:23.548Z,2.33
2022-10-01T09:28:54.583Z,3.57
2022-10-01T09:31:26.834Z,3.27
2022-10-01T09:33:58.447Z,3.20
2022-10-01T09:36:30.177Z,5.20
2022-10-01T09:39:01.687Z,4.27
2022-10-01T09:41:31.504Z,2.23
2022-10-01T09:44:00.206Z,5.57
2022-10-01T09:46:28.455Z,5.87
2022-10-01T09:49:00.952Z,3.63
2022-10-01T09:51:34.814Z,5.00
2022-10-01T09:54:07.090Z,3.70
2022-10-01T09:56:37.787Z,3.93
2022-10-01T09:59:10.171Z,3.23
2022-10-01T10:01:44.070Z,5.40
2022-10-01T10:04:17.950Z,3.10
2022-10-01T10:06:48.385Z,3.87
2022-10-01T10:09:17.813Z,6.53
2022-10-01T10:11:46.458Z,6.37
2022-10-01T10:14:20.043Z,9.43
2022-10-01T10:16:50.163Z,3.93
2022-10-01T10:19:24.260Z,7.30
2022-10-01T10:21:53.173Z,7.50
2022-10-01T10:24:25.293Z,4.03
2022-10-01T10:26:54.831Z,7.50
2022-10-01T10:29:31.088Z,5.83
2022-10-01T10:32:00.276Z,5.43
2022-10-01T10:34:33.096Z,4.97
2022-10-01T10:37:05.929Z,7.03
2022-10-01T10:39:36.444Z,6.50
2022-10-01T10:42:05.911Z,5.27
2022-10-01T10:44:36.541Z,7.27
2022-10-01T10:47:07.466Z,4.50
2022-10-01T10:49:40.688Z,3.87
2022-10-01T10:52:20.402Z,7.13
2022-10-01T10:54:50.557Z,8.23
2022-10-01T10:57:27.860Z,5.20
2022-10-01T10:59:57.326Z,4.87
2022-10-01T11:02:30.211Z,4.17
2022-10-01T11:05:01.928Z,4.10
2022-10-01T11:07:31.371Z,7.47
2022-10-01T11:10:07.721Z,3.43
2022-10-01T11:12:47.434Z,4.90
2022-10-01T11:15:26.183Z,5.07
2022-10-01T11:18:09.461Z,4.60
2022-10-01T11:20:44.231Z,4.03
2022-10-01T11:23:20.540Z,3.90
2022-10-01T11:25:54.326Z,3.60
2022-10-01T11:28:29.507Z,4.70
2022-10-01T11:31:00.795Z,3.07
2022-10-01T11:33:34.264Z,4.13
2022-10-01T11:36:06.109Z,4.50
2022-10-01T11:38:45.638Z,5.37
2022-10-01T11:41:35.619Z,4.33
2022-10-01T11:44:06.274Z,2.83
2022-10-01T11:46:38.518Z,2.67
2022-10-01T11:49:16.957Z,2.85
2022-10-01T11:51:50.278Z,2.75
2022-10-01T11:54:23.405Z,4.43
2022-10-01T11:57:10.652Z,2.85
2022-10-01T11:59:41.756Z,4.60
2022-10-01T12:02:16.810Z,1.90
2022-10-01T12:04:48.142Z,3.60
2022-10-01T12:07:21.874Z,2.28
2022-10-01T12:09:57.398Z,2.40
2022-10-01T12:12:27.889Z,6.15
2022-10-01T12:15:05.690Z,4.38
2022-10-01T12:17:36.278Z,2.75
2022-10-01T12:20:06.490Z,3.72
2022-10-01T12:22:37.451Z,3.50
2022-10-01T12:25:06.163Z,4.47
2022-10-01T12:27:41.410Z,2.70
2022-10-01T12:30:11.989Z,3.63
2022-10-01T12:32:48.552Z,2.33
2022-10-01T12:35:23.824Z,2.77
2022-10-01T12:38:00.878Z,3.37
2022-10-01T12:40:31.873Z,6.80
2022-10-01T12:43:14.034Z,3.00
2022-10-01T12:45:47.037Z,3.17
2022-10-01T12:48:17.775Z,2.67
2022-10-01T12:50:50.781Z,4.17
2022-10-01T12:53:24.747Z,4.20
2022-10-01T12:56:06.304Z,3.03
2022-10-01T12:58:52.375Z,3.33
2022-10-01T13:01:25.898Z,3.90
2022-10-01T13:04:05.041Z,3.75
2022-10-01T13:06:38.647Z,4.32
2022-10-01T13:09:14.542Z,4.18
2022-10-01T13:11:54.255Z,8.20
2022-10-01T13:14:22.824Z,4.65
2022-10-01T13:16:55.500Z,3.55
2022-10-01T13:19:27.157Z,3.70
2022-10-01T13:21:59.695Z,5.65
2022-10-01T13:24:32.407Z,8.75
2022-10-01T13:27:02.867Z,10.43
2022-10-01T13:29:36.813Z,4.32
2022-10-01T13:32:06.737Z,7.70
2022-10-01T13:34:39.889Z,7.05
2022-10-01T13:37:12.437Z,8.32
2022-10-01T13:39:43.523Z,5.35
2022-10-01T13:42:17.028Z,5.20
2022-10-01T13:44:45.609Z,8.93
2022-10-01T13:47:14.213Z,7.90
2022-10-01T13:49:43.175Z,5.97
2022-10-01T13:52:21.053Z,6.63
2022-10-01T13:54:52.548Z,6.77
2022-10-01T13:57:28.879Z,6.60
2022-10-01T14:00:01.287Z,5.50
2022-10-01T14:02:32.399Z,5.13
2022-10-01T14:05:07.669Z,6.27
2022-10-01T14:07:40.533Z,4.83
2022-10-01T14:10:13.059Z,6.53
2022-10-01T14:13:01.698Z,6.67
2022-10-01T14:15:50.868Z,6.63
2022-10-01T14:18:21.688Z,7.63
2022-10-01T14:20:54.285Z,6.80
2022-10-01T14:23:25.359Z,7.40
2022-10-01T14:25:56.761Z,5.80
2022-10-01T14:28:35.716Z,17.70
2022-10-01T14:31:08.659Z,6.90
2022-10-01T14:33:51.976Z,7.40
2022-10-01T14:36:21.325Z,5.33
2022-10-01T14:38:49.728Z,7.90
2022-10-01T14:41:21.467Z,5.75
2022-10-01T14:43:50.017Z,9.90
2022-10-01T14:46:19.656Z,5.90
2022-10-01T14:48:58.362Z,6.13
2022-10-01T14:51:27.823Z,5.67
2022-10-01T14:53:58.730Z,7.87
2022-10-01T14:56:29.473Z,6.78
2022-10-01T14:59:01.845Z,9.05
2022-10-01T15:01:30.381Z,6.70
2022-10-01T15:03:58.947Z,6.50
2022-10-01T15:06:30.003Z,9.30
2022-10-01T15:09:05.297Z,9.50
2022-10-01T15:11:36.856Z,6.57
2022-10-01T15:14:09.253Z,7.00
2022-10-01T15:16:38.637Z,8.45
2022-10-01T15:19:09.465Z,9.63
2022-10-01T15:21:39.275Z,6.07
2022-10-01T15:24:08.938Z,7.30
2022-10-01T15:26:39.076Z,4.63
2022-10-01T15:29:08.797Z,7.40
2022-10-01T15:31:38.370Z,6.53
2022-10-01T15:34:08.414Z,5.45
2022-10-01T15:36:37.410Z,5.60
2022-10-01T15:39:20.627Z,4.33
2022-10-01T15:42:01.795Z,5.20
2022-10-01T15:44:41.311Z,4.63
2022-10-01T15:47:28.322Z,7.30
2022-10-01T15:50:11.270Z,4.23
2022-10-01T15:52:54.258Z,4.50
2022-10-01T15:55:27.610Z,5.10
2022-10-01T15:58:00.704Z,7.20
2022-10-01T16:00:30.274Z,3.40
2022-10-01T16:02:59.351Z,5.40
2022-10-01T16:05:28.796Z,4.00
2022-10-01T16:07:58.262Z,6.67
2022-10-01T16:10:37.534Z,8.50
2022-10-01T16:13:24.397Z,6.03
2022-10-01T16:16:07.924Z,7.33
2022-10-01T16:18:37.460Z,6.90
2022-10-01T16:21:07.154Z,5.17
2022-10-01T16:23:36.317Z,5.70
2022-10-01T16:26:06.090Z,8.33
2022-10-01T16:28:35.370Z,8.30
2022-10-01T16:31:05.807Z,8.60
2022-10-01T16:33:35.602Z,12.70
2022-10-01T16:36:11.526Z,8.00
2022-10-01T16:38:39.850Z,4.83
2022-10-01T16:41:08.174Z,8.00
2022-10-01T16:43:36.433Z,6.83
2022-10-01T16:46:04.890Z,9.00
2022-10-01T16:48:33.225Z,10.93
2022-10-01T16:51:03.006Z,11.37
2022-10-01T16:53:31.464Z,6.77
2022-10-01T16:55:59.959Z,7.67
2022-10-01T16:58:28.711Z,9.23
2022-10-01T17:00:57.274Z,9.60
2022-10-01T17:03:27.005Z,9.70
2022-10-01T17:05:55.676Z,8.43
2022-10-01T17:08:25.621Z,8.67
2022-10-01T17:10:58.540Z,7.67
2022-10-01T17:13:27.532Z,7.97
2022-10-01T17:15:56.448Z,6.83
2022-10-01T17:18:24.940Z,5.80
2022-10-01T17:20:53.486Z,7.27
2022-10-01T17:23:22.510Z,8.43
2022-10-01T17:25:52.689Z,7.37
2022-10-01T17:28:21.753Z,8.90
2022-10-01T17:30:50.671Z,6.73
2022-10-01T17:33:20.265Z,7.57
2022-10-01T17:35:51.842Z,9.00
2022-10-01T17:38:21.085Z,5.93
2022-10-01T17:40:55.416Z,8.33
2022-10-01T17:43:26.151Z,9.87
2022-10-01T17:45:57.677Z,7.23
2022-10-01T17:48:26.558Z,9.20
2022-10-01T17:51:02.368Z,6.87
2022-10-01T17:53:35.969Z,6.63
2022-10-01T17:56:09.086Z,7.60
2022-10-01T17:58:44.216Z,8.03
2022-10-01T18:01:14.593Z,5.20
2022-10-01T18:03:43.005Z,7.03
2022-10-01T18:06:13.821Z,7.57
2022-10-01T18:08:54.662Z,5.27
2022-10-01T18:11:24.600Z,6.87
2022-10-01T18:13:54.642Z,9.43
2022-10-01T18:16:23.566Z,7.77
2022-10-01T18:21:44.736Z,10.23
2022-10-01T18:24:13.127Z,7.33
2022-10-01T18:26:41.604Z,25.97
2022-10-01T18:29:11.723Z,7.87
2022-10-01T18:31:44.318Z,7.63
2022-10-01T18:34:17.858Z,8.87
2022-10-01T18:36:52.016Z,6.73
2022-10-01T18:39:23.136Z,9.57
2022-10-01T18:41:51.638Z,11.07
2022-10-01T18:44:22.161Z,10.00
2022-10-01T18:47:08.284Z,7.03
2022-10-01T18:49:48.672Z,9.20
2022-10-01T18:52:23.164Z,9.20
2022-10-01T18:54:57.959Z,8.07
2022-10-01T18:57:33.061Z,10.67
2022-10-01T19:00:10.152Z,9.27
2022-10-01T19:02:50.445Z,11.00
2022-10-01T19:05:28.923Z,8.87
2022-10-01T19:08:01.537Z,11.37
2022-10-01T19:10:35.698Z,9.07
2022-10-01T19:13:07.450Z,9.30
2022-10-01T19:15:42.026Z,9.87
2022-10-01T19:18:25.570Z,9.47
2022-10-01T19:20:57.935Z,10.90
2022-10-01T19:23:39.201Z,9.00
2022-10-01T19:26:11.645Z,10.00
2022-10-01T19:28:44.446Z,10.07
2022-10-01T19:31:18.244Z,11.20
2022-10-01T19:33:48.338Z,10.90
2022-10-01T19:36:19.940Z,9.47
2022-10-01T19:38:49.446Z,13.83
2022-10-01T19:41:20.722Z,10.27
2022-10-01T19:43:52.204Z,13.27
2022-10-01T19:46:25.250Z,9.20
2022-10-01T19:48:55.834Z,8.47
2022-10-01T19:51:25.486Z,8.97
2022-10-01T19:54:00.182Z,11.80
2022-10-01T19:56:30.126Z,11.13
2022-10-01T19:58:58.961Z,9.30
2022-10-01T20:01:33.274Z,7.67
2022-10-01T20:04:03.612Z,11.27
2022-10-01T20:06:33.642Z,9.07
2022-10-01T20:09:04.972Z,7.97
2022-10-01T20:11:36.240Z,10.60
2022-10-01T20:14:10.773Z,12.53
2022-10-01T20:16:43.858Z,8.93
2022-10-01T20:19:19.846Z,10.90
2022-10-01T20:21:52.285Z,14.63
2022-10-01T20:24:28.769Z,12.23
2022-10-01T20:27:02.070Z,11.40
2022-10-01T20:29:38.444Z,7.87
2022-10-01T20:32:13.372Z,11.43
2022-10-01T20:34:48.192Z,8.43
2022-10-01T20:37:21.390Z,7.10
2022-10-01T20:39:51.030Z,6.23
2022-10-01T20:42:24.080Z,4.63
2022-10-01T20:44:57.333Z,6.27
2022-10-01T20:47:29.328Z,7.53
2022-10-01T20:50:06.875Z,6.47
2022-10-01T20:52:43.208Z,4.83
2022-10-01T20:55:15.605Z,7.33
2022-10-01T20:57:46.518Z,5.00
2022-10-01T21:00:19.390Z,6.17
2022-10-01T21:02:52.908Z,5.70
2022-10-01T21:05:23.965Z,5.53
2022-10-01T21:07:56.377Z,4.50
2022-10-01T21:10:27.445Z,5.53
2022-10-01T21:13:01.014Z,4.47
2022-10-01T21:15:31.959Z,3.50
2022-10-01T21:18:07.381Z,3.63
2022-10-01T21:20:48.183Z,3.87
2022-10-01T21:23:25.074Z,4.13
2022-10-01T21:26:00.775Z,3.80
2022-10-01T21:28:38.622Z,4.93
2022-10-01T21:31:13.557Z,5.53
2022-10-01T21:33:48.539Z,4.40
2022-10-01T21:36:19.530Z,4.57
2022-10-01T21:38:51.244Z,8.73
2022-10-01T21:41:27.653Z,4.73
2022-10-01T21:44:05.881Z,4.90
2022-10-01T21:46:41.172Z,7.30
2022-10-01T21:49:15.586Z,9.30
2022-10-01T21:51:51.222Z,4.27
2022-10-01T21:54:27.735Z,5.27
2022-10-01T21:57:02.550Z,4.40
2022-10-01T21:59:37.586Z,7.83
2022-10-01T22:02:07.298Z,7.10
2022-10-01T22:04:40.926Z,7.27
2022-10-01T22:07:16.048Z,5.20
2022-10-01T22:09:46.504Z,6.20
2022-10-01T22:12:14.932Z,8.53
2022-10-01T22:14:45.052Z,8.10
2022-10-01T22:17:15.713Z,5.67
2022-10-01T22:19:47.246Z,7.40
2022-10-01T22:22:17.523Z,8.00
2022-10-01T22:24:48.230Z,10.03
2022-10-01T22:27:18.437Z,9.03
2022-10-01T22:29:50.712Z,8.13
2022-10-01T22:32:21.204Z,12.50
2022-10-01T22:34:55.017Z,7.90
2022-10-01T22:37:24.903Z,9.97
2022-10-01T22:39:56.296Z,14.40
2022-10-01T22:42:26.922Z,9.97
2022-10-01T22:44:56.009Z,10.43
2022-10-01T22:47:40.416Z,10.70
2022-10-01T22:50:14.222Z,17.17
2022-10-01T22:52:47.729Z,13.70
2022-10-01T22:55:24.641Z,13.30
2022-10-01T22:57:58.961Z,13.43
2022-10-01T23:00:27.278Z,10.67
2022-10-01T23:03:09.136Z,12.70
2022-10-01T23:05:47.211Z,13.90
2022-10-01T23:08:21.700Z,12.10
2022-10-01T23:10:55.227Z,19.83
2022-10-01T23:13:27.078Z,14.70
2022-10-01T23:15:58.741Z,10.60
2022-10-01T23:18:34.376Z,12.50
2022-10-01T23:21:12.345Z,15.90
2022-10-01T23:23:42.582Z,18.27
2022-10-01T23:26:24.669Z,14.93
2022-10-01T23:29:01.907Z,14.47
2022-10-01T23:31:34.029Z,16.23
2022-10-01T23:34:07.086Z,12.23
2022-10-01T23:36:41.052Z,15.63
2022-10-01T23:39:28.568Z,14.80
2022-10-01T23:41:58.972Z,16.20
2022-10-01T23:44:33.109Z,14.43
2022-10-01T23:47:03.894Z,15.03
2022-10-01T23:49:37.126Z,15.77
2022-10-01T23:52:09.423Z,16.63
2022-10-01T23:54:39.399Z,20.97
2022-10-01T23:57:11.024Z,14.97
2022-10-01T23:59:42.358Z,12.43
